Coopersville, New York
Current Conditions -  °F | °C
As of 5:55 PM on Wednesday 22 Oct 2014 (Local Time) from KFSO Reporting Station
Scattered Clouds Scattered Clouds  
Wind Chill: 54°   Ceiling: Unl
Heat Index: 54°   Visibility: 10mi
Dew Point: 40°   Wind: 8mph
Humidity: 60%   Direction: 20°NNE
Pressure: 30.17"   Gusts: NA
Location:  44.9684°N, 73.45°W
Report Text: KFSO 222155Z AUTO 02007KT 10SM SCT080 SCT120 12/05 A3017 RMK AO2 T01200045
Loading
Personal Weather Stations






























Interactive Weather Map
Tropical Storm Tracking
New forecast layout! Learn more

10-Day Weather Forecast

Advertisements
Track Severe Weather on mobile